Time;durP1;ratioP1;P1;durP2;ratioP2;P2;SDS_P1;SDS_P2;PMS_P1;PMS_P2;Temp;Humidity;BMP_temperature;BMP_pressure;BME280_temperature;BME280_humidity;BME280_pressure;Samples;Min_cycle;Max_cycle;Signal;HPM_P1;HPM_P2
2022/02/27 00:00:31;;;;;;;72.00;37.78;;;;;;;1.87;68.05;102224.99;1942110;91;29395;-66
2022/02/27 00:03:34;;;;;;;81.40;40.35;;;;;;;1.78;68.08;102231.00;1941038;89;27661;-63
2022/02/27 00:06:37;;;;;;;99.10;43.35;;;;;;;1.67;68.06;102230.80;1934250;90;32809;-63
2022/02/27 00:09:39;;;;;;;90.77;46.08;;;;;;;1.57;68.38;102238.11;1928518;90;30738;-62
2022/02/27 00:12:41;;;;;;;103.47;46.13;;;;;;;1.47;68.47;102240.13;1927874;91;27655;-63
2022/02/27 00:15:45;;;;;;;90.22;45.50;;;;;;;1.38;68.60;102239.52;1922832;92;29113;-63
2022/02/27 00:18:47;;;;;;;90.10;46.80;;;;;;;1.28;68.48;102243.72;1916635;92;31912;-63
2022/02/27 00:21:49;;;;;;;93.03;45.67;;;;;;;1.19;68.55;102248.38;1917076;92;33268;-64
2022/02/27 00:24:51;;;;;;;93.47;48.02;;;;;;;1.10;68.63;102242.89;1914772;93;29333;-63
2022/02/27 00:27:53;;;;;;;81.87;43.42;;;;;;;1.00;68.62;102237.84;1883571;94;27674;-63
2022/02/27 00:30:55;;;;;;;83.82;44.83;;;;;;;0.90;68.64;102243.37;1914730;93;29665;-64
2022/02/27 00:33:57;;;;;;;83.82;44.38;;;;;;;0.81;68.68;102238.32;1884348;93;31463;-63
2022/02/27 00:37:01;;;;;;;77.35;42.23;;;;;;;0.69;68.68;102237.16;1912971;93;34133;-64
2022/02/27 00:40:05;;;;;;;74.53;39.58;;;;;;;0.58;68.78;102242.19;1883098;94;30472;-63
2022/02/27 00:43:07;;;;;;;55.03;30.80;;;;;;;0.48;68.92;102245.48;1913574;93;27744;-63
2022/02/27 00:46:09;;;;;;;79.85;41.98;;;;;;;0.39;68.96;102246.16;1883046;94;28491;-64
2022/02/27 00:49:11;;;;;;;75.45;40.10;;;;;;;0.28;69.04;102247.20;1913380;92;32237;-62
2022/02/27 00:52:13;;;;;;;86.78;43.15;;;;;;;0.22;69.30;102250.12;1882924;94;34091;-61
2022/02/27 00:55:15;;;;;;;82.95;42.88;;;;;;;0.11;69.29;102245.48;1913307;93;28546;-64
2022/02/27 00:58:17;;;;;;;87.02;43.02;;;;;;;0.05;69.32;102244.44;1874118;94;27679;-66
2022/02/27 01:01:20;;;;;;;83.50;43.10;;;;;;;-0.06;69.32;102241.08;1864478;94;29031;-64
2022/02/27 01:04:22;;;;;;;80.97;43.33;;;;;;;-0.11;69.36;102245.77;1917551;92;31416;-66
2022/02/27 01:07:23;;;;;;;80.65;42.78;;;;;;;-0.19;69.40;102245.16;1925592;91;33540;-66
2022/02/27 01:10:26;;;;;;;84.20;44.42;;;;;;;-0.27;69.50;102246.69;1922530;91;30349;-65
2022/02/27 01:13:27;;;;;;;88.82;43.00;;;;;;;-0.34;69.55;102248.70;1914623;92;27726;-64
2022/02/27 01:16:30;;;;;;;88.52;46.10;;;;;;;-0.41;69.55;102246.74;1877007;92;29861;-63
2022/02/27 01:19:33;;;;;;;91.45;46.28;;;;;;;-0.48;69.75;102247.00;1901431;93;31696;-63
2022/02/27 01:22:36;;;;;;;88.62;46.90;;;;;;;-0.54;69.82;102254.72;1897637;93;34033;-66
2022/02/27 01:25:38;;;;;;;99.13;47.93;;;;;;;-0.60;69.87;102259.83;1901255;92;29341;-64
2022/02/27 01:28:40;;;;;;;92.50;47.25;;;;;;;-0.67;69.99;102253.06;1898189;93;27695;-64
2022/02/27 01:31:44;;;;;;;87.57;47.08;;;;;;;-0.72;70.08;102255.10;1901021;93;29756;-65
2022/02/27 01:34:48;;;;;;;91.15;45.45;;;;;;;-0.79;70.25;102252.28;1871124;93;31062;-65
2022/02/27 01:37:50;;;;;;;92.35;45.40;;;;;;;-0.84;70.46;102248.64;1899571;93;33139;-64
2022/02/27 01:40:52;;;;;;;85.05;42.93;;;;;;;-0.88;70.45;102252.03;1869553;95;29527;-64
2022/02/27 01:43:54;;;;;;;93.97;45.10;;;;;;;-0.93;70.48;102246.64;1877647;94;27758;-63
2022/02/27 01:47:02;;;;;;;94.00;46.77;;;;;;;-0.96;70.67;102254.44;1868143;95;29235;-64
2022/02/27 01:50:05;;;;;;;87.30;44.75;;;;;;;-0.99;70.72;102250.39;1900578;93;31046;-63
2022/02/27 01:53:07;;;;;;;96.87;46.40;;;;;;;-1.02;70.72;102252.05;1883077;94;34221;-65
2022/02/27 01:56:09;;;;;;;92.45;47.33;;;;;;;-1.07;70.79;102245.31;1901230;93;30589;-64
2022/02/27 01:59:12;;;;;;;93.58;49.35;;;;;;;-1.11;70.79;102244.77;1901184;93;28341;-64
2022/02/27 02:02:14;;;;;;;103.65;50.88;;;;;;;-1.15;70.84;102246.83;1897597;93;29337;-66
2022/02/27 02:05:16;;;;;;;94.15;48.50;;;;;;;-1.19;70.99;102247.17;1914673;92;31935;-65
2022/02/27 02:08:19;;;;;;;91.50;45.80;;;;;;;-1.25;70.96;102249.59;1928218;92;33466;-65
2022/02/27 02:11:21;;;;;;;90.07;45.70;;;;;;;-1.29;71.04;102249.94;1928497;92;29496;-64
2022/02/27 02:14:23;;;;;;;91.95;47.95;;;;;;;-1.34;71.15;102243.63;1924071;92;27719;-64
2022/02/27 02:17:25;;;;;;;85.42;46.13;;;;;;;-1.38;71.10;102241.34;1935590;91;29857;-65
2022/02/27 02:20:27;;;;;;;106.32;50.78;;;;;;;-1.40;71.24;102247.37;1959394;90;31926;-65
2022/02/27 02:23:29;;;;;;;89.85;47.33;;;;;;;-1.43;71.28;102249.94;1930430;91;34228;-65
2022/02/27 02:26:32;;;;;;;97.47;48.65;;;;;;;-1.48;71.38;102241.88;1926051;92;29908;-64
2022/02/27 02:29:33;;;;;;;107.15;51.48;;;;;;;-1.51;71.37;102248.78;1905402;91;27656;-65
2022/02/27 02:32:54;;;;;;;105.60;52.55;;;;;;;-1.53;71.60;102245.68;1897597;93;28573;-66
2022/02/27 02:35:56;;;;;;;107.72;53.73;;;;;;;-1.56;71.53;102246.89;1917779;92;31210;-65
2022/02/27 02:39:00;;;;;;;99.22;49.75;;;;;;;-1.58;71.59;102245.06;1917753;92;33426;-67
2022/02/27 02:42:02;;;;;;;103.62;49.35;;;;;;;-1.60;71.62;102241.50;1921067;92;29339;-63
2022/02/27 02:45:05;;;;;;;104.38;47.70;;;;;;;-1.63;71.75;102241.39;1927685;91;27755;-64
2022/02/27 02:48:07;;;;;;;94.50;48.85;;;;;;;-1.67;71.76;102239.09;1941713;91;29502;-63
2022/02/27 02:51:09;;;;;;;98.12;49.70;;;;;;;-1.70;71.75;102244.24;1941503;91;31258;-62
2022/02/27 02:54:11;;;;;;;94.47;48.75;;;;;;;-1.73;71.87;102241.52;1941948;91;32998;-62
2022/02/27 02:57:14;;;;;;;92.05;45.75;;;;;;;-1.76;71.90;102239.69;1941530;91;30529;-63
2022/02/27 03:00:17;;;;;;;104.65;50.73;;;;;;;-1.78;72.05;102236.11;1928090;90;27745;-63
2022/02/27 03:03:19;;;;;;;99.67;46.88;;;;;;;-1.81;72.15;102243.02;1927448;92;29905;-62
2022/02/27 03:06:21;;;;;;;91.67;47.03;;;;;;;-1.85;72.11;102235.46;1906511;92;31855;-62
2022/02/27 03:09:23;;;;;;;97.25;46.95;;;;;;;-1.86;72.11;102243.73;1927347;92;33788;-62
2022/02/27 03:12:25;;;;;;;97.05;48.55;;;;;;;-1.88;72.10;102230.09;1927457;92;30560;-63
2022/02/27 03:15:27;;;;;;;90.03;44.30;;;;;;;-1.91;72.19;102236.16;1919431;91;27661;-65
2022/02/27 03:18:29;;;;;;;91.28;45.75;;;;;;;-1.93;72.17;102236.52;1895330;92;29886;-65
2022/02/27 03:21:31;;;;;;;89.42;44.73;;;;;;;-1.95;72.16;102237.28;1876251;93;32358;-66
2022/02/27 03:24:33;;;;;;;97.88;44.98;;;;;;;-1.97;72.22;102241.59;1904356;93;33306;-64
2022/02/27 03:27:34;;;;;;;82.57;43.05;;;;;;;-1.99;72.43;102248.12;1909360;92;29927;-62
2022/02/27 03:30:38;;;;;;;79.25;42.73;;;;;;;-2.02;72.44;102237.10;1912361;93;27724;-62
2022/02/27 03:33:41;;;;;;;87.20;42.08;;;;;;;-2.04;72.46;102243.13;1908829;93;30011;-62
2022/02/27 03:36:43;;;;;;;86.82;41.83;;;;;;;-2.08;72.32;102242.14;1904207;93;31087;-64
2022/02/27 03:39:45;;;;;;;90.22;43.70;;;;;;;-2.09;72.38;102251.28;1902755;93;33344;-63
2022/02/27 03:42:47;;;;;;;87.15;40.92;;;;;;;-2.12;72.46;102246.80;1903941;92;29939;-65
2022/02/27 03:45:49;;;;;;;94.45;43.35;;;;;;;-2.14;72.63;102249.79;1902737;93;28312;-63
2022/02/27 03:48:51;;;;;;;90.72;41.45;;;;;;;-2.16;72.63;102251.06;1903871;93;30163;-63
2022/02/27 03:51:53;;;;;;;80.55;40.60;;;;;;;-2.17;72.60;102252.34;1902615;93;31118;-62
2022/02/27 03:54:54;;;;;;;84.92;38.85;;;;;;;-2.20;72.55;102254.41;1904232;93;33790;-63
2022/02/27 03:57:56;;;;;;;78.57;41.98;;;;;;;-2.22;72.57;102257.41;1874408;93;30134;-64
2022/02/27 04:00:58;;;;;;;80.12;39.98;;;;;;;-2.23;72.53;102264.80;1886918;94;27745;-61
2022/02/27 04:04:01;;;;;;;79.22;38.60;;;;;;;-2.25;72.57;102262.97;1891336;92;29344;-62
2022/02/27 04:07:03;;;;;;;81.50;39.80;;;;;;;-2.29;72.56;102256.73;1873673;95;31241;-62
2022/02/27 04:10:06;;;;;;;92.33;40.48;;;;;;;-2.31;72.58;102257.97;1904128;92;33929;-61
2022/02/27 04:13:08;;;;;;;90.72;39.88;;;;;;;-2.33;72.75;102259.68;1902910;93;30135;-61
2022/02/27 04:16:10;;;;;;;91.87;42.88;;;;;;;-2.35;72.82;102263.06;1904198;92;27764;-61
2022/02/27 04:19:12;;;;;;;84.00;41.05;;;;;;;-2.39;72.77;102263.39;1892499;93;29592;-63
2022/02/27 04:22:13;;;;;;;95.35;43.75;;;;;;;-2.40;72.74;102268.16;1904020;93;30831;-64
2022/02/27 04:25:15;;;;;;;84.03;39.25;;;;;;;-2.42;72.79;102272.89;1874093;95;33108;-60
2022/02/27 04:28:17;;;;;;;81.10;39.10;;;;;;;-2.43;72.87;102267.17;1904017;92;29775;-61
2022/02/27 04:31:19;;;;;;;83.07;39.45;;;;;;;-2.46;72.82;102274.48;1902563;93;27723;-60
2022/02/27 04:34:20;;;;;;;83.52;40.30;;;;;;;-2.47;72.75;102279.27;1909201;92;28671;-63
2022/02/27 04:37:22;;;;;;;85.70;40.30;;;;;;;-2.50;72.81;102281.37;1873618;95;32337;-62
2022/02/27 04:40:25;;;;;;;92.75;42.17;;;;;;;-2.52;72.85;102281.73;1903778;92;32896;-60
2022/02/27 04:43:27;;;;;;;101.12;46.08;;;;;;;-2.53;72.99;102279.06;1873799;95;29573;-61
2022/02/27 04:46:29;;;;;;;105.32;49.35;;;;;;;-2.53;73.06;102280.38;1904114;93;27662;-62
2022/02/27 04:49:31;;;;;;;113.83;53.58;;;;;;;-2.54;73.05;102287.33;1874156;95;29509;-60
2022/02/27 04:52:34;;;;;;;95.92;47.90;;;;;;;-2.54;73.43;102293.02;1903955;92;31782;-61
2022/02/27 04:55:36;;;;;;;92.30;47.15;;;;;;;-2.51;73.78;102294.45;1902950;93;32831;-60
2022/02/27 04:58:37;;;;;;;102.17;49.00;;;;;;;-2.49;73.97;102299.34;1921950;92;30419;-64
2022/02/27 05:01:40;;;;;;;93.12;47.95;;;;;;;-2.48;74.05;102297.19;1903184;93;27648;-61
2022/02/27 05:04:42;;;;;;;93.30;44.48;;;;;;;-2.47;74.06;102291.98;1933950;92;29353;-62
2022/02/27 05:07:44;;;;;;;88.50;45.17;;;;;;;-2.45;73.87;102295.56;1912538;93;32385;-62
2022/02/27 05:10:46;;;;;;;98.42;47.80;;;;;;;-2.44;74.26;102303.00;1967678;90;34112;-62
2022/02/27 05:13:47;;;;;;;93.67;44.93;;;;;;;-2.41;74.16;102304.86;1933876;92;30482;-62
2022/02/27 05:16:49;;;;;;;173.78;85.50;;;;;;;-2.40;74.16;102310.59;1913675;91;27744;-62
2022/02/27 05:19:51;;;;;;;121.37;62.93;;;;;;;-2.38;74.59;102315.45;1918867;92;29101;-62
2022/02/27 05:22:53;;;;;;;94.10;45.63;;;;;;;-2.35;74.72;102320.41;1918751;92;31611;-65
2022/02/27 05:25:58;;;;;;;91.75;49.15;;;;;;;-2.32;74.62;102322.25;1916556;92;32998;-65
2022/02/27 05:29:00;;;;;;;82.92;43.33;;;;;;;-2.31;74.38;102324.91;1918854;92;29350;-66
2022/02/27 05:32:03;;;;;;;86.60;43.10;;;;;;;-2.31;74.23;102330.16;1918998;92;27702;-66
2022/02/27 05:35:07;;;;;;;85.07;42.55;;;;;;;-2.31;74.39;102334.53;1918817;92;29537;-66
2022/02/27 05:38:08;;;;;;;78.97;40.73;;;;;;;-2.29;74.51;102335.48;1918797;92;31841;-66
2022/02/27 05:41:10;;;;;;;88.17;41.73;;;;;;;-2.29;74.27;102336.36;1916956;92;34146;-64
2022/02/27 05:44:12;;;;;;;78.37;40.63;;;;;;;-2.29;74.10;102336.36;1915633;92;29593;-62
2022/02/27 05:47:14;;;;;;;74.87;39.25;;;;;;;-2.29;74.08;102341.62;1898565;93;27722;-63
2022/02/27 05:50:16;;;;;;;87.80;44.83;;;;;;;-2.29;74.11;102342.92;1914147;93;29476;-66
2022/02/27 05:53:18;;;;;;;66.50;37.75;;;;;;;-2.27;74.36;102340.38;1884286;93;32072;-67
2022/02/27 05:56:20;;;;;;;96.22;46.50;;;;;;;-2.23;74.15;102342.25;1913678;93;33424;-67
2022/02/27 05:59:22;;;;;;;87.57;43.40;;;;;;;-2.21;74.42;102348.45;1882773;94;30561;-66
2022/02/27 06:02:24;;;;;;;96.97;47.08;;;;;;;-2.16;74.59;102349.53;1913543;92;27800;-63
2022/02/27 06:05:25;;;;;;;103.25;49.15;;;;;;;-2.09;74.75;102353.70;1882999;94;29346;-62
2022/02/27 06:08:27;;;;;;;94.50;46.05;;;;;;;-2.02;75.25;102354.38;1913311;92;30838;-62
2022/02/27 06:11:29;;;;;;;105.30;50.50;;;;;;;-1.92;75.25;102354.28;1883120;94;33596;-63
2022/02/27 06:14:30;;;;;;;133.95;58.60;;;;;;;-1.80;76.00;102366.96;1913437;92;29690;-62
2022/02/27 06:17:32;;;;;;;115.30;53.65;;;;;;;-1.66;76.32;102363.07;1880895;94;27778;-63
2022/02/27 06:20:34;;;;;;;137.60;63.63;;;;;;;-1.50;76.85;102368.45;1874970;95;29734;-62
2022/02/27 06:23:37;;;;;;;148.47;66.40;;;;;;;-1.34;77.67;102377.72;1904837;93;31670;-63
2022/02/27 06:26:39;;;;;;;176.07;73.57;;;;;;;-1.18;77.71;102373.88;1922931;91;33183;-64
2022/02/27 06:29:40;;;;;;;150.38;66.10;;;;;;;-1.01;77.92;102384.05;1939127;91;30229;-64
2022/02/27 06:32:47;;;;;;;154.93;69.30;;;;;;;-0.88;77.92;102383.59;1959595;90;27760;-63
2022/02/27 06:35:48;;;;;;;132.52;57.13;;;;;;;-0.75;78.35;102385.28;1959714;90;29490;-64
2022/02/27 06:38:50;;;;;;;136.30;60.20;;;;;;;-0.65;78.69;102386.02;1938996;91;31102;-62
2022/02/27 06:41:53;;;;;;;149.93;65.47;;;;;;;-0.54;78.79;102387.26;1907545;93;34288;-62
2022/02/27 06:44:58;;;;;;;131.75;59.83;;;;;;;-0.46;78.57;102388.80;1939020;91;30611;-63
2022/02/27 06:48:00;;;;;;;;;;;;;;;-0.36;78.36;102385.58;1961743;90;27697;-63
2022/02/27 06:51:02;;;;;;;137.50;58.15;;;;;;;-0.24;78.38;102378.87;1959312;90;29276;-65
2022/02/27 06:54:03;;;;;;;139.35;57.65;;;;;;;-0.16;78.97;102382.64;1959603;90;31171;-62
2022/02/27 06:57:06;;;;;;;141.65;56.80;;;;;;;-0.07;78.23;102392.11;1907098;91;33663;-62
2022/02/27 07:00:09;;;;;;;128.70;56.08;;;;;;;0.04;78.08;102396.80;1868086;95;30001;-63
2022/02/27 07:03:11;;;;;;;125.38;56.98;;;;;;;0.09;77.93;102403.07;1898789;93;27719;-65
2022/02/27 07:06:13;;;;;;;122.07;56.37;;;;;;;0.16;77.92;102403.73;1917931;92;29922;-67
2022/02/27 07:09:15;;;;;;;137.10;61.53;;;;;;;0.21;77.78;102411.34;1898096;93;31097;-67
2022/02/27 07:12:17;;;;;;;136.00;61.63;;;;;;;0.25;77.58;102409.67;1917604;92;33434;-67
2022/02/27 07:15:19;;;;;;;125.30;58.15;;;;;;;0.31;77.47;102416.45;1917690;92;30564;-66
2022/02/27 07:18:21;;;;;;;143.17;59.48;;;;;;;0.41;77.74;102422.42;1919097;92;27602;-67
2022/02/27 07:21:23;;;;;;;143.43;58.17;;;;;;;0.49;77.54;102424.39;1903139;93;28666;-65
2022/02/27 07:24:25;;;;;;;133.52;59.13;;;;;;;0.53;77.54;102420.55;1941565;91;31492;-66
2022/02/27 07:27:26;;;;;;;127.75;53.87;;;;;;;0.57;77.30;102416.23;1909295;93;34139;-66
2022/02/27 07:30:28;;;;;;;127.38;56.13;;;;;;;0.64;77.68;102419.92;1880248;94;28693;-67
2022/02/27 07:33:30;;;;;;;114.35;53.85;;;;;;;0.69;77.29;102420.94;1880031;94;27738;-67
2022/02/27 07:36:33;;;;;;;130.32;55.98;;;;;;;0.71;77.15;102422.75;1910226;93;29341;-62
2022/02/27 07:39:35;;;;;;;121.15;53.20;;;;;;;0.74;77.15;102434.70;1910177;93;31727;-62
2022/02/27 07:42:38;;;;;;;125.82;59.00;;;;;;;0.83;77.31;102433.17;1879594;94;34371;-62
2022/02/27 07:45:40;;;;;;;112.45;54.10;;;;;;;0.91;77.27;102431.16;1909841;93;30599;-64
2022/02/27 07:48:42;;;;;;;162.65;71.02;;;;;;;1.02;77.09;102438.03;1880303;94;27623;-64
2022/02/27 07:51:44;;;;;;;146.02;69.25;;;;;;;1.11;77.05;102433.41;1880028;94;29673;-67
2022/02/27 07:54:46;;;;;;;170.75;78.92;;;;;;;1.21;77.08;102436.75;1909273;93;32267;-64
2022/02/27 07:57:48;;;;;;;119.65;53.65;;;;;;;1.31;76.93;102427.30;1941387;91;32854;-65
2022/02/27 08:00:50;;;;;;;110.28;49.35;;;;;;;1.44;76.84;102438.14;1941378;91;29369;-64
2022/02/27 08:03:52;;;;;;;137.22;57.50;;;;;;;1.46;76.67;102433.78;1941313;91;27698;-63
2022/02/27 08:06:54;;;;;;;117.17;53.38;;;;;;;1.48;76.40;102436.04;1921258;91;28674;-63
2022/02/27 08:09:56;;;;;;;146.02;59.75;;;;;;;1.50;76.36;102423.31;1915633;92;32260;-64
2022/02/27 08:12:58;;;;;;;127.25;55.48;;;;;;;1.61;76.48;102427.94;1944717;91;33370;-63
2022/02/27 08:16:01;;;;;;;134.55;59.25;;;;;;;1.69;76.35;102427.69;1943967;91;29374;-62
2022/02/27 08:19:03;;;;;;;134.67;56.45;;;;;;;1.73;76.20;102436.56;1944613;91;27903;-62
2022/02/27 08:22:04;;;;;;;105.15;49.05;;;;;;;1.79;76.19;102439.35;1944513;91;28736;-62
2022/02/27 08:25:10;;;;;;;124.53;50.65;;;;;;;1.87;76.13;102431.59;1942432;90;31946;-66
2022/02/27 08:28:11;;;;;;;126.82;53.63;;;;;;;1.91;76.01;102440.02;1897138;93;32989;-67
2022/02/27 08:31:14;;;;;;;116.95;52.20;;;;;;;1.98;76.10;102443.27;1930287;92;29768;-67
2022/02/27 08:34:19;;;;;;;130.72;55.55;;;;;;;2.03;75.92;102444.67;1930325;92;27731;-65
2022/02/27 08:37:20;;;;;;;114.17;52.17;;;;;;;2.07;75.89;102435.95;1930351;91;29425;-62
2022/02/27 08:40:22;;;;;;;121.57;56.02;;;;;;;2.11;75.80;102440.45;1930505;91;31054;-64
2022/02/27 08:43:25;;;;;;;124.90;57.17;;;;;;;2.15;75.78;102437.43;1904350;93;34363;-62
2022/02/27 08:46:27;;;;;;;127.62;59.95;;;;;;;2.20;75.76;102440.62;1915717;92;29365;-65
2022/02/27 08:49:30;;;;;;;152.35;64.92;;;;;;;2.23;75.70;102443.33;1944192;91;27719;-65
2022/02/27 08:52:32;;;;;;;124.58;56.48;;;;;;;2.29;75.77;102434.62;1944418;91;28304;-63
2022/02/27 08:55:34;;;;;;;130.30;58.25;;;;;;;2.40;75.85;102437.48;1937904;90;31807;-62
2022/02/27 08:58:36;;;;;;;113.12;50.15;;;;;;;2.49;75.58;102431.47;1930089;92;33842;-62
2022/02/27 09:01:38;;;;;;;114.35;52.88;;;;;;;2.51;75.40;102445.17;1930199;91;30221;-64
2022/02/27 09:04:40;;;;;;;98.47;45.78;;;;;;;2.51;75.22;102436.36;1909949;93;27747;-62
2022/02/27 09:07:42;;;;;;;105.63;48.87;;;;;;;2.50;75.21;102424.87;1873556;94;29921;-63
2022/02/27 09:10:46;;;;;;;83.10;40.38;;;;;;;2.53;75.22;102431.98;1907973;92;32386;-65
2022/02/27 09:13:48;;;;;;;100.58;44.95;;;;;;;2.54;75.28;102422.75;1915599;92;33939;-64
2022/02/27 09:16:50;;;;;;;73.62;37.03;;;;;;;2.64;75.46;102424.25;1943482;90;29898;-63
2022/02/27 09:19:52;;;;;;;78.70;40.75;;;;;;;2.73;75.23;102425.72;1919420;91;27772;-63
2022/02/27 09:22:54;;;;;;;79.50;41.40;;;;;;;2.81;75.12;102425.44;1915266;92;30003;-63
2022/02/27 09:25:56;;;;;;;82.17;40.55;;;;;;;2.93;75.20;102424.73;1915771;92;31660;-62
2022/02/27 09:28:58;;;;;;;73.67;37.15;;;;;;;3.12;75.19;102422.38;1896902;93;33987;-63
2022/02/27 09:32:01;;;;;;;70.65;38.83;;;;;;;3.25;74.92;102414.20;1888772;94;29696;-63
2022/02/27 09:35:06;;;;;;;71.57;38.02;;;;;;;3.32;74.58;102415.63;1889743;93;27795;-63
2022/02/27 09:38:08;;;;;;;81.53;41.17;;;;;;;3.43;74.53;102417.54;1914408;92;29867;-62
2022/02/27 09:41:10;;;;;;;77.78;40.60;;;;;;;3.53;74.39;102415.91;1884189;94;32200;-63
2022/02/27 09:44:13;;;;;;;80.15;39.67;;;;;;;3.58;74.11;102414.23;1914454;93;34211;-66
2022/02/27 09:47:16;;;;;;;111.32;53.85;;;;;;;3.62;74.07;102412.95;1883855;93;30202;-64
2022/02/27 09:50:22;;;;;;;87.17;45.15;;;;;;;3.71;74.11;102410.86;1913761;92;27643;-62
2022/02/27 09:53:24;;;;;;;85.53;42.10;;;;;;;3.85;74.02;102417.69;1884292;93;29530;-64
2022/02/27 09:56:26;;;;;;;86.42;43.23;;;;;;;3.91;73.74;102407.13;1914360;92;32409;-63
2022/02/27 09:59:28;;;;;;;76.47;42.20;;;;;;;3.96;73.51;102413.84;1884356;94;32927;-63
2022/02/27 10:02:31;;;;;;;76.92;40.92;;;;;;;4.09;73.83;102414.85;1884309;93;29898;-63
2022/02/27 10:05:37;;;;;;;83.87;42.20;;;;;;;4.25;73.60;102417.26;1914505;92;27977;-64
2022/02/27 10:08:48;;;;;;;94.32;48.08;;;;;;;4.36;72.98;102418.70;1884274;93;29669;-63
2022/02/27 10:11:53;;;;;;;79.85;42.45;;;;;;;4.41;73.06;102407.67;1914464;92;31117;-62
2022/02/27 10:15:01;;;;;;;65.17;34.43;;;;;;;4.51;72.96;102404.27;1884006;94;33989;-63
2022/02/27 10:18:17;;;;;;;82.78;42.35;;;;;;;4.61;72.46;102403.01;1913351;92;29392;-62
2022/02/27 10:21:26;;;;;;;74.17;37.38;;;;;;;4.72;72.71;102402.66;1880795;94;28064;-62
2022/02/27 10:24:28;;;;;;;65.17;36.50;;;;;;;4.84;72.09;102403.20;1862011;95;28782;-63
2022/02/27 10:27:43;;;;;;;55.43;32.65;;;;;;;5.04;72.33;102391.85;1880237;94;31687;-63
2022/02/27 10:30:46;;;;;;;85.12;45.58;;;;;;;5.22;72.25;102391.98;1914377;91;34242;-64
2022/02/27 10:33:48;;;;;;;66.72;35.43;;;;;;;5.41;71.89;102395.63;1884319;93;30372;-65
2022/02/27 10:37:06;;;;;;;63.28;34.75;;;;;;;5.52;71.12;102397.48;1914611;92;27654;-64
2022/02/27 10:40:09;;;;;;;58.17;33.63;;;;;;;5.55;71.16;102394.39;1884332;93;29851;-64
2022/02/27 10:43:14;;;;;;;66.70;35.10;;;;;;;5.62;70.85;102397.55;1914410;93;31922;-63
2022/02/27 10:46:19;;;;;;;59.13;34.13;;;;;;;5.69;70.79;102389.16;1883247;93;34181;-65
2022/02/27 10:49:33;;;;;;;56.10;32.85;;;;;;;5.82;70.70;102382.55;1911839;92;30174;-65
2022/02/27 10:52:42;;;;;;;68.47;36.65;;;;;;;5.99;70.47;102379.93;1885478;93;27871;-65
2022/02/27 10:55:39;;;;;;;55.33;29.27;;;;;;;6.13;70.04;102379.55;1901652;92;29623;-63
2022/02/27 10:58:46;;;;;;;54.00;30.15;;;;;;;6.30;69.99;102376.05;1913698;92;31533;-65
2022/02/27 11:01:49;;;;;;;56.95;32.20;;;;;;;6.52;69.78;102377.86;1884278;94;33896;-66
2022/02/27 11:04:51;;;;;;;54.63;31.90;;;;;;;6.57;68.76;102369.00;1914420;93;30255;-65
2022/02/27 11:07:57;;;;;;;51.98;31.97;;;;;;;6.61;69.04;102364.12;1884211;93;27682;-64
2022/02/27 11:10:59;;;;;;;53.17;31.75;;;;;;;6.66;68.71;102371.22;1883565;94;28769;-63
2022/02/27 11:14:03;;;;;;;52.30;31.68;;;;;;;6.57;68.71;102369.87;1884559;94;32246;-63
2022/02/27 11:17:05;;;;;;;64.30;34.75;;;;;;;6.48;68.51;102368.09;1884469;93;34109;-64
2022/02/27 11:20:09;;;;;;;55.50;33.78;;;;;;;6.33;68.32;102370.73;1916821;92;30630;-66
2022/02/27 11:23:11;;;;;;;54.35;29.77;;;;;;;6.21;68.48;102364.52;1890215;94;27631;-64
2022/02/27 11:26:13;;;;;;;51.92;30.23;;;;;;;6.18;68.69;102361.84;1920430;92;29981;-65
2022/02/27 11:29:15;;;;;;;60.10;33.60;;;;;;;6.13;67.95;102362.27;1890234;94;31722;-63
2022/02/27 11:32:16;;;;;;;57.50;31.57;;;;;;;5.99;68.07;102363.55;1920374;92;34207;-64
2022/02/27 11:35:50;;;;;;;61.63;34.50;;;;;;;5.96;68.44;102362.20;1889874;94;30766;-64
2022/02/27 11:39:04;;;;;;;57.08;35.23;;;;;;;6.07;69.00;102360.94;1920514;92;27788;-64
2022/02/27 11:42:07;;;;;;;57.83;33.38;;;;;;;6.23;69.08;102353.86;1890064;94;29932;-65
2022/02/27 11:45:09;;;;;;;59.60;33.25;;;;;;;6.29;68.69;102347.68;1920815;92;32276;-65
2022/02/27 11:48:11;;;;;;;60.15;33.75;;;;;;;6.32;68.57;102340.58;1900267;93;34185;-64
2022/02/27 11:51:35;;;;;;;55.15;33.05;;;;;;;6.32;68.38;102338.34;1863703;95;30263;-66
2022/02/27 11:54:54;;;;;;;60.83;33.02;;;;;;;6.26;67.94;102343.22;1856754;95;27791;-67
2022/02/27 11:57:56;;;;;;;61.08;33.83;;;;;;;6.25;68.35;102342.77;1893399;93;28694;-66
2022/02/27 12:01:02;;;;;;;65.85;36.30;;;;;;;6.30;67.91;102338.36;1863525;95;31118;-63
2022/02/27 12:04:25;;;;;;;66.45;34.15;;;;;;;6.19;67.86;102334.80;1892919;94;33948;-64
2022/02/27 12:07:28;;;;;;;65.03;34.78;;;;;;;6.03;67.41;102333.44;1863856;95;29707;-62
2022/02/27 12:10:45;;;;;;;56.20;33.35;;;;;;;5.86;67.51;102343.98;1893045;94;28177;-63
2022/02/27 12:13:54;;;;;;;58.15;31.27;;;;;;;5.79;67.85;102343.54;1863565;95;28726;-63
2022/02/27 12:16:57;;;;;;;56.10;30.30;;;;;;;5.75;67.94;102345.73;1899571;92;31928;-66
2022/02/27 12:19:59;;;;;;;54.00;31.85;;;;;;;5.79;68.05;102342.20;1902409;93;34202;-64
2022/02/27 12:23:01;;;;;;;52.30;29.75;;;;;;;5.81;67.88;102333.77;1928640;91;30598;-63
2022/02/27 12:26:07;;;;;;;48.13;27.60;;;;;;;5.82;67.64;102345.31;1941850;91;28244;-63
2022/02/27 12:29:33;;;;;;;45.17;25.62;;;;;;;5.83;67.47;102341.31;1941764;91;28659;-62
2022/02/27 12:32:35;;;;;;;48.05;29.45;;;;;;;5.80;66.80;102331.11;1941637;90;32297;-63
2022/02/27 12:35:38;;;;;;;72.72;38.42;;;;;;;5.80;67.13;102328.00;1927278;92;33625;-63
2022/02/27 12:38:40;;;;;;;44.05;28.32;;;;;;;5.83;67.22;102328.02;1927531;92;29351;-65
2022/02/27 12:41:50;;;;;;;55.58;31.48;;;;;;;5.94;67.42;102326.72;1927685;91;27631;-65
2022/02/27 12:44:54;;;;;;;38.08;25.25;;;;;;;5.98;67.12;102326.27;1927484;92;28683;-66
2022/02/27 12:48:16;;;;;;;38.13;24.75;;;;;;;5.95;66.23;102325.83;1927457;92;32163;-64
2022/02/27 12:51:21;;;;;;;39.20;24.75;;;;;;;5.93;66.48;102325.84;1927490;92;34131;-66
2022/02/27 12:54:30;;;;;;;38.45;24.90;;;;;;;5.92;66.40;102320.08;1922153;91;30219;-64
2022/02/27 12:57:28;;;;;;;48.30;29.27;;;;;;;5.96;66.46;102328.07;1921577;91;27805;-64
2022/02/27 13:00:36;;;;;;;48.30;30.08;;;;;;;5.91;66.03;102324.05;1923794;92;28726;-65
2022/02/27 13:03:38;;;;;;;46.58;29.32;;;;;;;5.80;65.87;102329.33;1936793;90;31667;-66
2022/02/27 13:06:40;;;;;;;43.83;26.95;;;;;;;5.74;66.34;102328.87;1927328;90;33838;-66
2022/02/27 13:09:45;;;;;;;38.83;25.72;;;;;;;5.72;66.52;102332.42;1927336;91;29519;-66
2022/02/27 13:12:49;;;;;;;43.40;25.40;;;;;;;5.75;66.46;102330.66;1927735;92;27671;-64
2022/02/27 13:15:56;;;;;;;43.30;27.50;;;;;;;5.81;66.25;102330.23;1918425;92;28681;-65
2022/02/27 13:18:58;;;;;;;44.45;24.37;;;;;;;5.78;66.15;102327.13;1925216;91;31209;-63
2022/02/27 13:22:02;;;;;;;46.10;27.48;;;;;;;5.77;66.33;102326.23;1917653;91;34395;-65
2022/02/27 13:25:07;;;;;;;39.38;25.62;;;;;;;5.76;66.11;102328.44;1917435;92;29607;-64
2022/02/27 13:28:09;;;;;;;44.05;25.68;;;;;;;5.65;65.90;102324.87;1917761;92;27636;-64
2022/02/27 13:31:22;;;;;;;42.15;26.33;;;;;;;5.58;65.56;102319.97;1917263;92;29266;-63
2022/02/27 13:34:25;;;;;;;47.65;28.70;;;;;;;5.46;65.88;102315.94;1916947;91;31228;-65
2022/02/27 13:37:30;;;;;;;49.60;30.32;;;;;;;5.40;65.92;102312.78;1915546;92;33823;-64
2022/02/27 13:40:36;;;;;;;57.23;30.40;;;;;;;5.30;66.10;102315.84;1915924;92;29498;-64
2022/02/27 13:43:41;;;;;;;50.73;29.85;;;;;;;5.16;66.29;102317.11;1904857;92;27668;-64
2022/02/27 13:46:46;;;;;;;37.50;22.40;;;;;;;5.18;66.49;102319.77;1911672;92;29462;-63
2022/02/27 13:49:48;;;;;;;49.88;27.73;;;;;;;5.15;66.36;102320.65;1895204;93;32373;-64
2022/02/27 13:53:00;;;;;;;48.73;28.80;;;;;;;5.15;66.48;102319.74;1884224;94;33015;-64
2022/02/27 13:56:12;;;;;;;49.42;29.12;;;;;;;5.11;66.37;102321.95;1885538;94;29955;-63